createdAt,value
2023-02-15T00:01:58.929Z,-0.30
2023-02-15T00:04:46.604Z,-0.30
2023-02-15T00:07:18.669Z,-0.20
2023-02-15T00:09:47.366Z,-0.20
2023-02-15T00:12:14.623Z,-0.10
2023-02-15T00:14:41.461Z,-0.20
2023-02-15T00:17:08.329Z,-0.20
2023-02-15T00:19:35.166Z,-0.30
2023-02-15T00:22:02.067Z,-0.30
2023-02-15T00:24:28.921Z,-0.40
2023-02-15T00:26:55.806Z,-0.40
2023-02-15T00:29:22.845Z,-0.50
2023-02-15T00:31:50.101Z,-0.50
2023-02-15T00:34:25.892Z,-0.60
2023-02-15T00:36:52.893Z,-0.70
2023-02-15T00:39:20.142Z,-0.70
2023-02-15T00:41:47.637Z,-0.80
2023-02-15T00:44:14.696Z,-0.80
2023-02-15T00:46:41.626Z,-0.80
2023-02-15T00:49:08.546Z,-0.80
2023-02-15T00:51:35.454Z,-0.80
2023-02-15T00:54:02.316Z,-0.90
2023-02-15T00:56:29.518Z,-0.90
2023-02-15T00:58:56.430Z,-0.90
2023-02-15T01:01:24.530Z,-0.90
2023-02-15T01:03:51.585Z,-0.90
2023-02-15T01:06:18.932Z,-0.90
2023-02-15T01:08:47.119Z,-1.00
2023-02-15T01:11:23.142Z,-1.00
2023-02-15T01:13:57.022Z,-1.00
2023-02-15T01:16:25.840Z,-1.00
2023-02-15T01:18:53.079Z,-1.10
2023-02-15T01:21:21.949Z,-1.10
2023-02-15T01:23:49.511Z,-1.10
2023-02-15T01:26:16.999Z,-1.10
2023-02-15T01:28:43.862Z,-1.10
2023-02-15T01:31:18.301Z,-1.10
2023-02-15T01:33:45.678Z,-1.10
2023-02-15T01:36:12.604Z,-1.10
2023-02-15T01:38:41.011Z,-1.10
2023-02-15T01:41:27.408Z,-1.10
2023-02-15T01:43:59.839Z,-1.20
2023-02-15T01:46:49.749Z,-1.20
2023-02-15T01:49:20.722Z,-1.20
2023-02-15T01:51:51.260Z,-1.30
2023-02-15T01:54:32.753Z,-1.30
2023-02-15T01:57:06.010Z,-1.30
2023-02-15T01:59:34.736Z,-1.30
2023-02-15T02:02:03.767Z,-1.30
2023-02-15T02:04:50.469Z,-1.30
2023-02-15T02:07:21.144Z,-1.30
2023-02-15T02:09:49.072Z,-1.30
2023-02-15T02:12:18.530Z,-1.20
2023-02-15T02:14:46.837Z,-1.30
2023-02-15T02:17:31.981Z,-1.30
2023-02-15T02:20:16.628Z,-1.20
2023-02-15T02:22:58.484Z,-1.30
2023-02-15T02:25:41.094Z,-1.30
2023-02-15T02:28:29.461Z,-1.30
2023-02-15T02:31:22.016Z,-1.30
2023-02-15T02:34:07.430Z,-1.40
2023-02-15T02:36:55.528Z,-1.40
2023-02-15T02:39:40.880Z,-1.30
2023-02-15T02:42:19.526Z,-1.20
2023-02-15T02:44:50.775Z,-1.20
2023-02-15T02:47:27.192Z,-1.10
2023-02-15T02:50:00.886Z,-1.10
2023-02-15T02:52:40.977Z,-1.10
2023-02-15T02:55:19.673Z,-1.10
2023-02-15T02:58:15.944Z,-1.00
2023-02-15T03:00:49.379Z,-1.00
2023-02-15T03:03:27.052Z,-1.00
2023-02-15T03:05:57.889Z,-1.00
2023-02-15T03:08:29.104Z,-1.00
2023-02-15T03:11:00.035Z,-1.00
2023-02-15T03:13:27.668Z,-1.00
2023-02-15T03:16:15.273Z,-1.00
2023-02-15T03:18:53.831Z,-1.00
2023-02-15T03:21:25.174Z,-1.00
2023-02-15T03:24:27.362Z,-1.00
2023-02-15T03:26:55.711Z,-1.10
2023-02-15T03:29:25.885Z,-1.00
2023-02-15T03:32:01.076Z,-1.00
2023-02-15T03:34:28.460Z,-1.00
2023-02-15T03:37:21.019Z,-1.00
2023-02-15T03:40:25.375Z,-0.90
2023-02-15T03:43:08.446Z,-0.90
2023-02-15T03:45:39.352Z,-0.80
2023-02-15T03:48:09.389Z,-0.90
2023-02-15T03:50:57.794Z,-0.80
2023-02-15T03:53:25.437Z,-0.80
2023-02-15T03:55:55.606Z,-0.80
2023-02-15T03:58:41.266Z,-0.80
2023-02-15T04:01:40.394Z,-0.70
2023-02-15T04:04:14.358Z,-0.70
2023-02-15T04:06:41.280Z,-0.60
2023-02-15T04:09:26.489Z,-0.60
2023-02-15T04:11:53.335Z,-0.60
2023-02-15T04:14:38.963Z,-0.50
2023-02-15T04:17:09.743Z,-0.50
2023-02-15T04:19:55.800Z,-0.50
2023-02-15T04:22:41.315Z,-0.50
2023-02-15T04:25:14.195Z,-0.50
2023-02-15T04:27:43.487Z,-0.50
2023-02-15T04:30:11.669Z,-0.40
2023-02-15T04:32:39.544Z,-0.50
2023-02-15T04:35:07.233Z,-0.50
2023-02-15T04:37:34.410Z,-0.50
2023-02-15T04:40:01.216Z,-0.50
2023-02-15T04:42:28.448Z,-0.40
2023-02-15T04:44:55.636Z,-0.50
2023-02-15T04:47:22.889Z,-0.40
2023-02-15T04:49:49.808Z,-0.50
2023-02-15T04:52:18.311Z,-0.40
2023-02-15T04:54:45.822Z,-0.50
2023-02-15T04:57:13.482Z,-0.50
2023-02-15T04:59:40.385Z,-0.50
2023-02-15T05:02:07.262Z,-0.50
2023-02-15T05:04:34.297Z,-0.50
2023-02-15T05:07:01.179Z,-0.50
2023-02-15T05:09:28.063Z,-0.50
2023-02-15T05:11:55.055Z,-0.50
2023-02-15T05:14:22.049Z,-0.50
2023-02-15T05:16:48.877Z,-0.50
2023-02-15T05:19:16.519Z,-0.50
2023-02-15T05:21:43.379Z,-0.50
2023-02-15T05:24:28.689Z,-0.50
2023-02-15T05:27:14.249Z,-0.60
2023-02-15T05:29:41.103Z,-0.60
2023-02-15T05:32:08.231Z,-0.70
2023-02-15T05:34:35.091Z,-0.70
2023-02-15T05:37:01.976Z,-0.70
2023-02-15T05:39:28.830Z,-0.70
2023-02-15T05:41:55.648Z,-0.70
2023-02-15T05:44:22.517Z,-0.70
2023-02-15T05:46:49.321Z,-0.70
2023-02-15T05:49:16.142Z,-0.70
2023-02-15T05:51:42.981Z,-0.80
2023-02-15T05:54:09.831Z,-0.90
2023-02-15T05:56:36.702Z,-0.90
2023-02-15T05:59:03.653Z,-1.00
2023-02-15T06:01:30.502Z,-1.10
2023-02-15T06:03:57.394Z,-1.10
2023-02-15T06:06:24.308Z,-1.10
2023-02-15T06:08:51.160Z,-1.10
2023-02-15T06:11:18.031Z,-1.10
2023-02-15T06:13:44.973Z,-1.10
2023-02-15T06:16:11.924Z,-1.10
2023-02-15T06:18:38.877Z,-1.10
2023-02-15T06:21:05.705Z,-1.00
2023-02-15T06:23:32.586Z,-0.90
2023-02-15T06:25:59.578Z,-0.80
2023-02-15T06:28:26.681Z,-0.80
2023-02-15T06:30:53.740Z,-0.70
2023-02-15T06:33:20.747Z,-0.70
2023-02-15T06:35:47.737Z,-0.60
2023-02-15T06:38:14.641Z,-0.40
2023-02-15T06:40:41.511Z,-0.30
2023-02-15T06:43:08.342Z,-0.10
2023-02-15T06:45:35.431Z,0.30
2023-02-15T06:48:02.338Z,1.00
2023-02-15T06:50:29.203Z,1.60
2023-02-15T06:53:00.024Z,1.90
2023-02-15T06:55:27.373Z,2.40
2023-02-15T06:57:54.272Z,2.80
2023-02-15T07:00:23.213Z,3.50
2023-02-15T07:02:56.703Z,4.40
2023-02-15T07:05:23.984Z,5.20
2023-02-15T07:07:50.996Z,6.00
2023-02-15T07:10:18.022Z,6.70
2023-02-15T07:12:45.399Z,7.30
2023-02-15T07:15:17.679Z,7.80
2023-02-15T07:17:44.930Z,8.60
2023-02-15T07:20:23.269Z,9.50
2023-02-15T07:22:51.167Z,10.30
2023-02-15T07:25:18.378Z,11.10
2023-02-15T07:27:46.067Z,11.80
2023-02-15T07:30:16.027Z,12.40
2023-02-15T07:33:04.558Z,13.10
2023-02-15T07:35:32.271Z,13.70
2023-02-15T07:37:59.069Z,14.40
2023-02-15T07:40:26.203Z,15.00
2023-02-15T07:42:57.288Z,15.50
2023-02-15T07:45:24.159Z,16.20
2023-02-15T07:47:51.047Z,16.70
2023-02-15T07:50:18.126Z,17.40
2023-02-15T07:52:44.935Z,18.00
2023-02-15T07:55:13.853Z,18.40
2023-02-15T07:57:45.390Z,18.90
2023-02-15T08:00:14.490Z,19.20
2023-02-15T08:02:41.541Z,19.90
2023-02-15T08:05:08.723Z,20.50
2023-02-15T08:07:35.609Z,21.00
2023-02-15T08:10:02.484Z,21.20
2023-02-15T08:12:29.932Z,21.70
2023-02-15T08:14:56.819Z,22.30
2023-02-15T08:17:24.681Z,22.70
2023-02-15T08:19:51.545Z,23.30
2023-02-15T08:22:18.474Z,23.90
2023-02-15T08:24:45.266Z,24.60
2023-02-15T08:27:12.814Z,24.90
2023-02-15T08:29:40.607Z,25.50
2023-02-15T08:32:13.415Z,25.60
2023-02-15T08:34:43.027Z,25.70
2023-02-15T08:37:10.571Z,26.10
2023-02-15T08:39:37.889Z,26.40
2023-02-15T08:42:04.927Z,26.70
2023-02-15T08:44:31.864Z,26.70
2023-02-15T08:47:03.888Z,27.00
2023-02-15T08:49:30.895Z,27.30
2023-02-15T08:51:57.719Z,27.40
2023-02-15T08:54:24.673Z,27.40
2023-02-15T08:56:51.689Z,27.60
2023-02-15T08:59:24.044Z,27.60
2023-02-15T09:01:52.710Z,27.70
2023-02-15T09:04:20.885Z,28.00
2023-02-15T09:06:49.635Z,28.40
2023-02-15T09:09:18.238Z,28.40
2023-02-15T09:11:47.674Z,28.90
2023-02-15T09:14:17.419Z,29.00
2023-02-15T09:16:50.872Z,28.50
2023-02-15T09:19:20.828Z,28.20
2023-02-15T09:21:48.025Z,27.40
2023-02-15T09:24:16.865Z,27.40
2023-02-15T09:26:46.304Z,27.20
2023-02-15T09:29:14.687Z,27.30
2023-02-15T09:31:45.487Z,27.60
2023-02-15T09:34:14.682Z,27.80
2023-02-15T09:36:42.250Z,27.50
2023-02-15T09:39:26.210Z,27.30
2023-02-15T09:42:11.285Z,27.40
2023-02-15T09:45:16.636Z,27.10
2023-02-15T09:48:03.166Z,26.40
2023-02-15T09:50:34.179Z,24.80
2023-02-15T09:53:24.348Z,22.90
2023-02-15T09:56:11.194Z,20.90
2023-02-15T09:58:47.018Z,20.10
2023-02-15T10:01:32.756Z,21.20
2023-02-15T10:04:18.496Z,22.70
2023-02-15T10:07:30.058Z,24.00
2023-02-15T10:10:03.462Z,24.50
2023-02-15T10:12:51.232Z,24.30
2023-02-15T10:15:40.959Z,24.00
2023-02-15T10:18:34.955Z,24.00
2023-02-15T10:21:11.204Z,24.50
2023-02-15T10:23:49.958Z,25.10
2023-02-15T10:26:23.835Z,25.50
2023-02-15T10:29:10.099Z,25.30
2023-02-15T10:31:50.021Z,25.00
2023-02-15T10:34:30.131Z,24.10
2023-02-15T10:37:18.726Z,23.80
2023-02-15T10:39:54.396Z,23.40
2023-02-15T10:42:55.403Z,23.00
2023-02-15T10:45:41.309Z,22.90
2023-02-15T10:48:26.922Z,22.70
2023-02-15T10:51:03.690Z,22.70
2023-02-15T10:53:33.514Z,22.90
2023-02-15T10:56:09.361Z,23.00
2023-02-15T10:59:11.253Z,23.00
2023-02-15T11:02:08.536Z,23.30
2023-02-15T11:04:56.507Z,23.00
2023-02-15T11:07:29.993Z,21.80
2023-02-15T11:10:20.060Z,21.40
2023-02-15T11:12:48.132Z,21.20
2023-02-15T11:15:51.662Z,20.90
2023-02-15T11:18:35.491Z,20.80
2023-02-15T11:21:21.386Z,21.30
2023-02-15T11:23:49.615Z,21.60
2023-02-15T11:26:37.553Z,21.80
2023-02-15T11:29:25.611Z,21.90
2023-02-15T11:31:57.252Z,21.10
2023-02-15T11:34:29.996Z,20.00
2023-02-15T11:37:01.397Z,19.60
2023-02-15T11:39:32.814Z,19.60
2023-02-15T11:42:05.823Z,19.60
2023-02-15T11:44:40.381Z,19.40
2023-02-15T11:47:13.754Z,19.30
2023-02-15T11:49:40.823Z,19.30
2023-02-15T11:52:11.916Z,19.50
2023-02-15T11:54:43.615Z,19.80
2023-02-15T11:57:26.464Z,19.70
2023-02-15T12:00:15.751Z,19.80
2023-02-15T12:02:49.263Z,19.60
2023-02-15T12:05:23.336Z,19.30
2023-02-15T12:08:05.105Z,18.90
2023-02-15T12:10:52.512Z,18.10
2023-02-15T12:13:21.769Z,17.30
2023-02-15T12:15:52.364Z,16.40
2023-02-15T12:18:34.740Z,15.50
2023-02-15T12:21:12.907Z,14.50
2023-02-15T12:23:52.115Z,13.60
2023-02-15T12:26:45.270Z,12.90
2023-02-15T12:29:18.065Z,12.40
2023-02-15T12:31:51.299Z,12.00
2023-02-15T12:34:30.289Z,11.50
2023-02-15T12:37:01.377Z,11.20
2023-02-15T12:39:31.323Z,11.00
2023-02-15T12:42:15.780Z,10.80
2023-02-15T12:44:59.476Z,10.70
2023-02-15T12:47:29.457Z,10.60
2023-02-15T12:50:12.177Z,10.40
2023-02-15T12:52:40.202Z,10.20
2023-02-15T12:55:31.200Z,10.20
2023-02-15T12:58:09.664Z,10.40
2023-02-15T13:00:36.690Z,10.80
2023-02-15T13:03:05.123Z,11.20
2023-02-15T13:05:43.430Z,11.80
2023-02-15T13:08:21.587Z,12.60
2023-02-15T13:11:07.773Z,13.30
2023-02-15T13:13:40.078Z,13.90
2023-02-15T13:16:11.868Z,13.80
2023-02-15T13:18:46.645Z,13.30
2023-02-15T13:21:18.044Z,12.80
2023-02-15T13:23:49.732Z,12.50
2023-02-15T13:26:20.969Z,13.00
2023-02-15T13:28:55.155Z,13.60
2023-02-15T13:31:25.914Z,14.00
2023-02-15T13:33:59.540Z,14.10
2023-02-15T13:36:59.423Z,14.10
2023-02-15T13:39:45.442Z,14.10
2023-02-15T13:42:12.214Z,13.80
2023-02-15T13:44:42.172Z,13.50
2023-02-15T13:47:32.182Z,13.30
2023-02-15T13:50:15.206Z,13.10
2023-02-15T13:52:59.920Z,13.00
2023-02-15T13:55:41.269Z,12.80
2023-02-15T13:58:18.604Z,12.60
2023-02-15T14:00:45.610Z,12.50
2023-02-15T14:03:30.946Z,12.50
2023-02-15T14:06:07.331Z,12.30
2023-02-15T14:08:55.146Z,12.20
2023-02-15T14:11:42.548Z,12.20
2023-02-15T14:14:52.077Z,12.00
2023-02-15T14:17:37.237Z,11.90
2023-02-15T14:20:22.821Z,11.80
2023-02-15T14:22:55.592Z,11.70
2023-02-15T14:25:25.265Z,11.60
2023-02-15T14:28:42.318Z,11.50
2023-02-15T14:31:13.075Z,11.40
2023-02-15T14:33:44.290Z,11.10
2023-02-15T14:36:18.035Z,10.90
2023-02-15T14:39:06.130Z,10.70
2023-02-15T14:42:05.269Z,10.40
2023-02-15T14:44:41.305Z,10.20
2023-02-15T14:47:22.974Z,9.90
2023-02-15T14:49:49.942Z,9.70
2023-02-15T14:52:16.819Z,9.50
2023-02-15T14:54:43.641Z,9.30
2023-02-15T14:57:11.114Z,9.10
2023-02-15T14:59:59.507Z,9.00
2023-02-15T15:02:49.738Z,8.90
2023-02-15T15:05:29.357Z,8.70
2023-02-15T15:07:59.680Z,8.60
2023-02-15T15:10:26.922Z,8.50
2023-02-15T15:12:55.155Z,8.40
2023-02-15T15:15:21.991Z,8.30
2023-02-15T15:18:10.925Z,8.20
2023-02-15T15:20:49.059Z,8.10
2023-02-15T15:23:17.057Z,8.10
2023-02-15T15:25:57.549Z,8.00
2023-02-15T15:28:36.448Z,7.90
2023-02-15T15:31:27.953Z,7.80
2023-02-15T15:34:13.230Z,7.70
2023-02-15T15:37:10.514Z,7.60
2023-02-15T15:40:06.155Z,7.60
2023-02-15T15:42:38.995Z,7.50
2023-02-15T15:45:32.014Z,7.40
2023-02-15T15:48:27.587Z,7.40
2023-02-15T15:50:55.509Z,7.30
2023-02-15T15:53:25.209Z,7.20
2023-02-15T15:55:57.590Z,7.10
2023-02-15T15:58:25.948Z,7.00
2023-02-15T16:01:15.785Z,7.00
2023-02-15T16:03:53.678Z,6.90
2023-02-15T16:06:39.160Z,6.80
2023-02-15T16:09:20.042Z,6.70
2023-02-15T16:11:56.551Z,6.60
2023-02-15T16:14:23.344Z,6.50
2023-02-15T16:16:54.773Z,6.50
2023-02-15T16:19:43.925Z,6.40
2023-02-15T16:22:17.441Z,6.30
2023-02-15T16:25:04.529Z,6.20
2023-02-15T16:27:37.187Z,6.10
2023-02-15T16:30:23.117Z,6.00
2023-02-15T16:32:53.680Z,5.90
2023-02-15T16:35:22.657Z,5.90
2023-02-15T16:37:49.604Z,5.80
2023-02-15T16:40:25.994Z,5.60
2023-02-15T16:42:56.943Z,5.50
2023-02-15T16:45:27.093Z,5.30
2023-02-15T16:47:58.242Z,5.20
2023-02-15T16:50:34.226Z,5.10
2023-02-15T16:53:02.864Z,5.00
2023-02-15T16:55:36.030Z,4.90
2023-02-15T16:58:06.229Z,4.70
2023-02-15T17:00:36.949Z,4.60
2023-02-15T17:03:14.164Z,4.50
2023-02-15T17:05:40.929Z,4.40
2023-02-15T17:08:32.737Z,4.30
2023-02-15T17:10:59.586Z,4.20
2023-02-15T17:13:28.325Z,4.10
2023-02-15T17:16:01.327Z,4.00
2023-02-15T17:18:30.296Z,3.90
2023-02-15T17:21:00.526Z,4.00
2023-02-15T17:23:34.549Z,4.00
2023-02-15T17:26:12.118Z,4.00
2023-02-15T17:28:45.018Z,4.10
2023-02-15T17:31:16.648Z,4.10
2023-02-15T17:33:44.430Z,4.10
2023-02-15T17:36:11.368Z,4.20
2023-02-15T17:38:40.551Z,4.10
2023-02-15T17:41:07.870Z,4.20
2023-02-15T17:43:34.809Z,4.10
2023-02-15T17:46:01.816Z,4.10
2023-02-15T17:48:35.392Z,4.10
2023-02-15T17:51:04.358Z,4.10
2023-02-15T17:53:32.303Z,4.10
2023-02-15T17:55:59.298Z,4.10
2023-02-15T17:58:26.360Z,4.00
2023-02-15T18:01:15.943Z,4.00
2023-02-15T18:04:06.036Z,4.00
2023-02-15T18:06:52.868Z,4.00
2023-02-15T18:09:40.568Z,3.90
2023-02-15T18:12:29.519Z,3.90
2023-02-15T18:14:57.655Z,3.90
2023-02-15T18:17:29.341Z,3.80
2023-02-15T18:19:56.557Z,3.80
2023-02-15T18:22:23.448Z,3.80
2023-02-15T18:24:50.589Z,3.80
2023-02-15T18:27:17.491Z,3.80
2023-02-15T18:29:44.485Z,3.70
2023-02-15T18:32:27.480Z,3.70
2023-02-15T18:34:57.598Z,3.70
2023-02-15T18:37:33.398Z,3.70
2023-02-15T18:40:03.859Z,3.60
2023-02-15T18:42:34.453Z,3.70
2023-02-15T18:45:15.652Z,3.70
2023-02-15T18:47:43.127Z,3.70
2023-02-15T18:50:10.274Z,3.70
2023-02-15T18:52:38.645Z,3.70
2023-02-15T18:55:19.887Z,3.60
2023-02-15T18:57:48.899Z,3.60
2023-02-15T19:00:22.059Z,3.50
2023-02-15T19:02:49.916Z,3.50
2023-02-15T19:05:18.190Z,3.50
2023-02-15T19:07:48.525Z,3.40
2023-02-15T19:10:19.304Z,3.40
2023-02-15T19:12:46.898Z,3.40
2023-02-15T19:15:34.525Z,3.30
2023-02-15T19:18:01.403Z,3.30
2023-02-15T19:20:47.927Z,3.20
2023-02-15T19:23:21.330Z,3.20
2023-02-15T19:25:49.864Z,3.10
2023-02-15T19:28:19.793Z,3.10
2023-02-15T19:30:46.960Z,3.10
2023-02-15T19:33:19.574Z,3.00
2023-02-15T19:35:52.511Z,3.00
2023-02-15T19:38:23.721Z,3.00
2023-02-15T19:40:50.613Z,3.00
2023-02-15T19:43:26.099Z,2.90
2023-02-15T19:45:53.642Z,2.90
2023-02-15T19:48:20.847Z,2.80
2023-02-15T19:50:48.972Z,2.80
2023-02-15T19:53:24.501Z,2.80
2023-02-15T19:55:52.410Z,2.80
2023-02-15T19:58:20.489Z,2.80
2023-02-15T20:00:50.143Z,2.70
2023-02-15T20:03:17.371Z,2.70
2023-02-15T20:05:44.863Z,2.60
2023-02-15T20:08:20.338Z,2.60
2023-02-15T20:10:47.578Z,2.60
2023-02-15T20:13:20.240Z,2.50
2023-02-15T20:15:47.684Z,2.50
2023-02-15T20:18:14.883Z,2.50
2023-02-15T20:20:53.470Z,2.40
2023-02-15T20:23:30.690Z,2.40
2023-02-15T20:26:00.544Z,2.50
2023-02-15T20:28:30.335Z,2.40
2023-02-15T20:30:57.665Z,2.40
2023-02-15T20:33:24.669Z,2.30
2023-02-15T20:35:52.001Z,2.30
2023-02-15T20:38:26.689Z,2.30
2023-02-15T20:41:12.987Z,2.20
2023-02-15T20:43:40.296Z,2.20
2023-02-15T20:46:07.759Z,2.10
2023-02-15T20:48:34.935Z,2.10
2023-02-15T20:51:02.407Z,2.00
2023-02-15T20:53:29.813Z,2.00
2023-02-15T20:55:57.326Z,2.00
2023-02-15T20:58:27.693Z,1.90
2023-02-15T21:00:56.897Z,1.80
2023-02-15T21:03:27.944Z,1.80
2023-02-15T21:05:55.047Z,1.80
2023-02-15T21:08:24.040Z,1.70
2023-02-15T21:10:53.265Z,1.60
2023-02-15T21:13:40.424Z,1.60
2023-02-15T21:16:07.532Z,1.60
2023-02-15T21:18:34.929Z,1.50
2023-02-15T21:21:05.357Z,1.40
2023-02-15T21:23:40.425Z,1.40
2023-02-15T21:26:17.285Z,1.30
2023-02-15T21:28:45.454Z,1.30
2023-02-15T21:31:21.902Z,1.40
2023-02-15T21:33:49.150Z,1.30
2023-02-15T21:36:19.396Z,1.20
2023-02-15T21:38:47.805Z,1.20
2023-02-15T21:41:38.743Z,1.20
2023-02-15T21:44:37.545Z,1.20
2023-02-15T21:47:23.846Z,1.20
2023-02-15T21:49:50.738Z,1.20
2023-02-15T21:52:23.096Z,1.10
2023-02-15T21:54:49.933Z,1.10
2023-02-15T21:57:17.747Z,1.00
2023-02-15T21:59:46.679Z,0.90
2023-02-15T22:02:27.656Z,0.90
2023-02-15T22:04:54.687Z,0.90
2023-02-15T22:07:21.500Z,0.90
2023-02-15T22:09:48.509Z,0.90
2023-02-15T22:12:17.825Z,0.90
2023-02-15T22:14:49.078Z,0.80
2023-02-15T22:17:17.532Z,0.90
2023-02-15T22:19:46.189Z,0.70
2023-02-15T22:22:13.670Z,0.60
2023-02-15T22:24:41.050Z,0.60
2023-02-15T22:27:22.327Z,0.50
2023-02-15T22:29:50.144Z,0.50
2023-02-15T22:32:23.416Z,0.40
2023-02-15T22:34:52.386Z,0.40
2023-02-15T22:37:19.573Z,0.50
2023-02-15T22:39:46.446Z,0.50
2023-02-15T22:42:31.216Z,0.60
2023-02-15T22:44:58.582Z,0.50
2023-02-15T22:47:28.737Z,0.50
2023-02-15T22:49:56.023Z,0.50
2023-02-15T22:52:23.127Z,0.70
2023-02-15T22:54:50.172Z,0.40
2023-02-15T22:57:29.359Z,0.40
2023-02-15T22:59:56.929Z,0.30
2023-02-15T23:02:23.857Z,0.20
2023-02-15T23:04:50.768Z,0.20
2023-02-15T23:07:19.152Z,0.20
2023-02-15T23:09:46.538Z,0.10
2023-02-15T23:12:49.656Z,0.10
2023-02-15T23:15:16.623Z,0.10
2023-02-15T23:17:43.496Z,0.10
2023-02-15T23:20:17.486Z,0.10
2023-02-15T23:22:44.801Z,0.00
2023-02-15T23:25:12.391Z,0.00
2023-02-15T23:27:57.728Z,-0.10
2023-02-15T23:30:24.936Z,-0.10
2023-02-15T23:32:54.294Z,-0.20
2023-02-15T23:35:21.219Z,-0.30
2023-02-15T23:37:48.173Z,-0.30
2023-02-15T23:40:38.387Z,-0.40
2023-02-15T23:43:06.644Z,-0.40
2023-02-15T23:45:37.402Z,-0.40
2023-02-15T23:48:31.308Z,-0.50
2023-02-15T23:50:59.273Z,-0.60
2023-02-15T23:53:26.289Z,-0.60
2023-02-15T23:55:53.690Z,-0.60
2023-02-15T23:58:23.525Z,-0.70
